CPX963 Details

Departure: Chicago/Rockford International Airport (KRFD)
Arrival: Joint Base McGuire Dix Lakehurst (KWRI) at N/A
Route: QUOTE WHETT J64 LEPEW J518 AVERE J152 HAR HAR5
Notes: EMPTY | NON-REVENUE REPOSITIONING LEG


Current Weather Information
KRFD 230654Z 22008KT 10SM CLR 06/00 A2982 RMK AO2 SLP101 T00560000
KWRI 230656Z AUTO 28006KT 10SM OVC060 16/15 A2979 RMK AO2 SLP087 T01550149